Пилотам вертолетов

Aviation Digital Data Service (ADDS)

Output produced by METARs form (2008 UTC 19 September 2018)
found at http://aviationweather.gov/metar/data/
 
METAR text: UUWW 191930Z 24004MPS CAVOK 17/11 Q1014 R24/000070 NOSIG
Conditions at: UUWW (MOSCOW/VNUKOVO , RU) observed 1930 UTC 19 September 2018
Temperature: 17.0°C (63°F)
Dewpoint: 11.0°C (52°F) [RH = 68%]
Pressure (altimeter): 29.94 inches Hg (1014.0 mb)
Winds: from the WSW (240 degrees) at 9 MPH (8 knots; 4.1 m/s)
Visibility: 6 or more miles (10+ km)
Ceiling: ceiling and visibility are OK
Clouds: unknown
Weather: no significant weather observed at this time
Forecast for: UUWW (MOSCOW/VNUKOVO , RU)
Text: TAF UUWW 191653Z 1918/2018 25006MPS 9999 SCT030 TX23/2012Z TN11/2002Z
Forecast period: 1800 UTC 19 September 2018 to 0700 UTC 20 September 2018
Forecast type: FROM: standard forecast or significant change
Winds: from the WSW (250 degrees) at 14 MPH (12 knots; 6.2 m/s)
Visibility: 6 or more miles 10+ km)
Ceiling: at least 12,000 feet AGL
Clouds: scattered clouds at 3000 feet AGL
Weather: no significant weather forecast for this period
Text: BECMG 2007/2009 30007MPS
Forecast period: 0700 to 1800 UTC 20 September 2018
Forecast type: BECOMING: Conditions expected to become as follows by 0900 UTC 20 September 2018
Winds: from the WNW (300 degrees) at 16 MPH (14 knots; 7.2 m/s)
Visibility: 6 or more miles 10+ km)
Ceiling: at least 12,000 feet AGL
Clouds: scattered clouds at 3000 feet AGL
Weather: no significant weather forecast for this period
METAR text: UUEE 191930Z 24005MPS CAVOK 17/12 Q1013 R24C/CLRD62 R24L/CLRD62 NOSIG
Conditions at: UUEE (MOSCOW/SHEREMET', RU) observed 1930 UTC 19 September 2018
Temperature: 17.0°C (63°F)
Dewpoint: 12.0°C (54°F) [RH = 72%]
Pressure (altimeter): 29.91 inches Hg (1013.0 mb)
Winds: from the WSW (240 degrees) at 12 MPH (10 knots; 5.1 m/s)
Visibility: 6 or more miles (10+ km)
Ceiling: ceiling and visibility are OK
Clouds: unknown
Weather: no significant weather observed at this time
Forecast for: UUEE (MOSCOW/SHEREMET', RU)
Text: TAF UUEE 191652Z 1918/2018 24004MPS 9999 SCT020 TX24/2012Z TN11/2003Z
Forecast period: 1800 UTC 19 September 2018 to 0400 UTC 20 September 2018
Forecast type: FROM: standard forecast or significant change
Winds: from the WSW (240 degrees) at 9 MPH (8 knots; 4.1 m/s)
Visibility: 6 or more miles 10+ km)
Ceiling: at least 12,000 feet AGL
Clouds: scattered clouds at 2000 feet AGL
Weather: no significant weather forecast for this period
Text: BECMG 2004/2006 30006MPS
Forecast period: 0400 to 1800 UTC 20 September 2018
Forecast type: BECOMING: Conditions expected to become as follows by 0600 UTC 20 September 2018
Winds: from the WNW (300 degrees) at 14 MPH (12 knots; 6.2 m/s)
Visibility: 6 or more miles 10+ km)
Ceiling: at least 12,000 feet AGL
Clouds: scattered clouds at 2000 feet AGL
Weather: no significant weather forecast for this period
METAR text: UUDD 191930Z 26004MPS CAVOK 17/10 Q1014 R88/010095 NOSIG
Conditions at: UUDD (MOSCOW/DOMODEDOV, RU) observed 1930 UTC 19 September 2018
Temperature: 17.0°C (63°F)
Dewpoint: 10.0°C (50°F) [RH = 63%]
Pressure (altimeter): 29.94 inches Hg (1014.0 mb)
Winds: from the W (260 degrees) at 9 MPH (8 knots; 4.1 m/s)
Visibility: 6 or more miles (10+ km)
Ceiling: ceiling and visibility are OK
Clouds: unknown
Weather: no significant weather observed at this time
Forecast for: UUDD (MOSCOW/DOMODEDOV, RU)
Text: TAF UUDD 191657Z 1918/2024 26006MPS 9999 SCT011 TX24/2012Z TN11/2002Z
Forecast period: 1800 UTC 19 September 2018 to 0000 UTC 21 September 2018
Forecast type: FROM: standard forecast or significant change
Winds: from the W (260 degrees) at 14 MPH (12 knots; 6.2 m/s)
Visibility: 6 or more miles 10+ km)
Ceiling: at least 12,000 feet AGL
Clouds: scattered clouds at 1100 feet AGL
Weather: no significant weather forecast for this period
Text: TEMPO 2006/2015 30011MPS
Forecast period: 0600 to 1500 UTC 20 September 2018
Forecast type: TEMPORARY: The following changes expected for less than half the time period
Winds: from the WNW (300 degrees) at 24 MPH (21 knots; 10.8 m/s)
Visibility: missing
Ceiling: unknown
Clouds: missing
Weather: no significant weather forecast for this period